Weather observations for the past three days for
Redwood Falls Municipal Airport
| Date | Time (cdt) | Wind (kph) | Vis. (km) | Weather | Sky Cond. | Temperature (ºC) | Relative Humidity | Wind Chill (°C) | Heat Index (°C) | Pressure | Precipitation (cm) | ||||||
|---|---|---|---|---|---|---|---|---|---|---|---|---|---|---|---|---|---|
| Air | Dwpt | 6 hour | altimeter (cm) | sea level (mb) | 1 hr | 3 hr | 6 hr | ||||||||||
| Max. | Min. | ||||||||||||||||
| 06 | 03:53 | NW 13 | 16.09 | Overcast | OVC070 | 1.1 | -5 | 64% | -2 | 76.15 | 1016.0 | ||||||
| 06 | 02:53 | W 11 | 16.09 | Fair | CLR | 0.6 | -5.6 | 64% | -2 | 76.12 | 1015.7 | ||||||
| 06 | 01:53 | W 11 | 16.09 | Overcast | OVC070 | 2.8 | -5.6 | 54% | 0 | 76.12 | 1015.6 | ||||||
| 06 | 00:53 | NW 9 | 16.09 | Overcast | OVC075 | 3.3 | -5.6 | 8.9 | 2.8 | 52% | 1 | 76.12 | 1015.7 | ||||
| 05 | 23:53 | NW 11 | 16.09 | Overcast | OVC075 | 3.9 | -5.6 | 50% | 1 | 76.12 | 1015.4 | ||||||
| 05 | 22:53 | NW 9 | 16.09 | Fair | CLR | 3.3 | -6.1 | 51% | 1 | 76.1 | 1015.2 | ||||||
| 05 | 21:53 | NW 9 | 16.09 | Fair | CLR | 4.4 | -5.6 | 49% | 2 | 76.07 | 1014.9 | ||||||
| 05 | 20:53 | NW 11 | 16.09 | Fair | CLR | 5.6 | -5.6 | 45% | 3 | 76 | 1013.9 | ||||||
| 05 | 19:53 | NW 19 G 33 | 16.09 | Fair | CLR | 7.2 | -5.6 | 40% | 4 | 75.95 | 1013.3 | ||||||
| 05 | 18:53 | NW 26 G 43 | 16.09 | Overcast | OVC075 | 8.3 | -5.6 | 11.1 | 8.3 | 37% | 5 | 75.92 | 1012.9 | ||||
| 05 | 17:53 | NW 26 G 50 | 16.09 | Overcast | OVC075 | 10.6 | -6.1 | 31% | 75.87 | 1012.4 | |||||||
| 05 | 16:53 | W 31 G 41 | 16.09 | Overcast | OVC075 | 9.4 | -6.7 | 32% | 6 | 75.87 | 1012.4 | ||||||
| 05 | 15:53 | W 26 G 41 | 16.09 | Overcast | FEW065 OVC080 | 10.6 | -6.1 | 31% | 75.9 | 1012.5 | |||||||
| 05 | 14:53 | NW 19 G 33 | 16.09 | Overcast | BKN075 OVC090 | 9.4 | -6.7 | 32% | 7 | 75.9 | 1012.6 | ||||||
| 05 | 13:53 | NW 13 G 37 | 16.09 | Overcast | OVC075 | 10 | -6.7 | 30% | 8 | 75.9 | 1012.4 | ||||||
| 05 | 12:53 | NW 19 G 39 | 16.09 | Overcast | OVC070 | 9.4 | -5.6 | 10.6 | 0.6 | 35% | 7 | 75.9 | 1012.5 | ||||
| 05 | 11:53 | NW 26 G 39 | 16.09 | Mostly Cloudy | BKN070 | 8.9 | -7.2 | 32% | 6 | 75.9 | 1012.4 | ||||||
| 05 | 10:53 | NW 15 G 30 | 16.09 | Mostly Cloudy | FEW048 BKN070 | 7.8 | -5.6 | 38% | 6 | 75.9 | 1012.5 | ||||||
| 05 | 09:53 | NW 15 | 16.09 | Fair | CLR | 7.2 | -3.3 | 48% | 5 | 75.9 | 1012.5 | ||||||
| 05 | 08:53 | N 7 | 16.09 | Fair | CLR | 5.6 | -2.2 | 58% | 4 | 75.87 | 1012.1 | ||||||
| 05 | 07:53 | NW 9 | 16.09 | Fair | CLR | 3.9 | -1.1 | 70% | 2 | 75.82 | 1011.5 | ||||||
| 05 | 06:53 | W 11 | 16.09 | Fair | CLR | 0.6 | -2.8 | 3.9 | -0.6 | 78% | -2 | 75.74 | 1010.6 | ||||
| 05 | 05:53 | W 9 | 16.09 | Fair | CLR | 0 | -3.3 | 79% | -3 | 75.69 | 1009.8 | ||||||
| 05 | 04:53 | NW 11 | 16.09 | Fair | CLR | 1.1 | -3.3 | 73% | -2 | 75.69 | 1009.7 | ||||||
| 05 | 03:53 | W 11 | 16.09 | Fair | CLR | 0.6 | -3.3 | 75% | -2 | 75.67 | 1009.3 | ||||||
| 05 | 02:53 | W 13 | 16.09 | Fair | CLR | 1.1 | -3.9 | 70% | -2 | 75.62 | 1008.8 | ||||||
| 05 | 01:53 | W 11 | 16.09 | Fair | CLR | 2.2 | -3.9 | 64% | -1 | 75.62 | 1008.7 | ||||||
| 05 | 00:53 | W 11 | 16.09 | Fair | CLR | 3.3 | -3.9 | 11.1 | 3.3 | 60% | 1 | 75.64 | 1008.9 | ||||
| 04 | 23:53 | W 13 | 16.09 | Fair | CLR | 3.9 | -3.9 | 57% | 1 | 75.62 | 1008.5 | ||||||
| 04 | 22:53 | W 9 | 16.09 | Fair | CLR | 5.6 | -3.9 | 51% | 4 | 75.62 | 1008.4 | ||||||
| 04 | 21:53 | NW 13 | 16.09 | Fair | CLR | 6.7 | -4.4 | 45% | 4 | 75.57 | 1007.9 | ||||||
| 04 | 20:53 | W 13 | 16.09 | Fair | CLR | 8.3 | -4.4 | 41% | 6 | 75.54 | 1007.1 | ||||||
| 04 | 19:53 | NW 24 G 39 | 16.09 | Fair | CLR | 10 | -5 | 35% | 7 | 75.49 | 1006.7 | ||||||
| 04 | 18:53 | NW 22 G 48 | 16.09 | Fair | CLR | 11.1 | -4.4 | 15.6 | 10.6 | 34% | 75.46 | 1006.1 | |||||
| 04 | 17:53 | NW 22 G 52 | 16.09 | A Few Clouds | FEW070 | 11.7 | -3.3 | 35% | 75.41 | 1005.4 | |||||||
| 04 | 16:53 | W 30 G 50 | 16.09 | Partly Cloudy | SCT060 | 12.8 | -2.2 | 36% | 75.36 | 1004.7 | |||||||
| 04 | 15:53 | NW 41 G 65 | 16.09 | A Few Clouds and Breezy | FEW060 | 13.9 | -1.1 | 36% | 75.31 | 1004.0 | |||||||
| 04 | 14:53 | NW 33 G 54 | 16.09 | Fair and Breezy | CLR | 14.4 | -1.1 | 35% | 75.26 | 1003.5 | |||||||
| 04 | 13:53 | W 43 G 59 | 16.09 | Fair and Windy | CLR | 15 | -2.2 | 31% | 75.21 | 1002.8 | |||||||
| 04 | 12:53 | NW 26 G 54 | 16.09 | A Few Clouds | FEW090 FEW110 | 13.3 | -1.7 | 16.1 | 12.8 | 36% | 75.18 | 1002.6 | |||||
| 04 | 11:53 | NW 28 G 57 | 16.09 | Fair | CLR | 15.6 | -1.1 | 32% | 75.13 | 1001.5 | |||||||
| 04 | 10:53 | NW 24 G 48 | 16.09 | Fair | CLR | 15 | 1.1 | 39% | 75.08 | 1001.0 | |||||||
| 04 | 09:53 | NW 30 G 48 | 16.09 | Fair | CLR | 14.4 | 1.7 | 42% | 75.06 | 1000.7 | |||||||
| 04 | 08:53 | NW 26 G 41 | 16.09 | Fair | CLR | 13.9 | 1.7 | 44% | 75.03 | 1000.3 | |||||||
| 04 | 07:53 | NW 22 G 43 | 16.09 | Fair | CLR | 12.8 | 2.8 | 51% | 75.01 | 999.8 | |||||||
| 04 | 06:53 | NW 24 G 43 | 16.09 | Fair | CLR | 13.3 | 2.8 | 15 | 11.1 | 49% | 74.93 | 998.7 | |||||
| 04 | 05:53 | W 26 G 41 | 16.09 | Fair | CLR | 13.9 | 1.1 | 42% | 74.85 | 997.6 | |||||||
| 04 | 04:53 | SW 30 | 16.09 | Fair | CLR | 13.9 | 0 | 39% | 74.78 | 996.6 | |||||||
| 04 | 03:53 | SW 24 | 16.09 | Fair | CLR | 11.7 | -0.6 | 43% | 74.83 | 997.5 | |||||||
| 04 | 02:53 | SW 24 | 16.09 | Fair | CLR | 11.7 | -0.6 | 43% | 74.9 | 998.6 | |||||||
| 04 | 01:53 | SW 20 | 16.09 | Fair | CLR | 11.7 | 0 | 45% | 75.01 | 999.8 | |||||||
| 04 | 00:53 | SW 20 | 16.09 | Fair | CLR | 11.1 | -0.6 | 21.1 | 11.1 | 45% | 75.11 | 1001.3 | |||||
| 03 | 23:53 | SW 15 | 16.09 | Fair | CLR | 13.9 | -2.8 | 32% | 75.18 | 1002.3 | |||||||
| 03 | 22:53 | SW 15 | 16.09 | Fair | CLR | 12.8 | -1.1 | 38% | 75.26 | 1003.2 | |||||||
| 03 | 21:53 | SW 13 | 16.09 | Fair | CLR | 15 | -1.7 | 32% | 75.31 | 1004.0 | |||||||
| 03 | 20:53 | SW 11 | 16.09 | Fair | CLR | 18.3 | -2.2 | 25% | 75.34 | 1004.3 | |||||||
| 03 | 19:53 | W 13 | 16.09 | Fair | CLR | 19.4 | -1.1 | 25% | 75.36 | 1004.5 | |||||||
| 03 | 18:53 | W 26 G 35 | 16.09 | Fair | CLR | 21.1 | -0.6 | 21.7 | 18.9 | 23% | 75.39 | 1004.9 | |||||
| 03 | 17:53 | NW 22 | 16.09 | Fair | CLR | 21.7 | -1.1 | 22% | 75.44 | 1005.7 | |||||||
| 03 | 16:53 | NW 19 | 16.09 | Fair | CLR | 21.7 | -0.6 | 23% | 75.49 | 1006.2 | |||||||
| 03 | 15:53 | W 20 G 35 | 16.09 | Fair | CLR | 21.1 | 0.6 | 26% | 75.54 | 1007.0 | |||||||
| 03 | 14:53 | NW 28 G 39 | 16.09 | Fair | CLR | 20.6 | 1.1 | 27% | 75.59 | 1007.8 | |||||||
| 03 | 13:53 | NW 26 G 37 | 16.09 | Fair | CLR | 20.6 | 1.1 | 27% | 75.64 | 1008.3 | |||||||
| 03 | 12:53 | NW 24 G 48 | 16.09 | Fair | CLR | 19.4 | 1.1 | 19.4 | 9.4 | 30% | 75.69 | 1008.9 | |||||
| 03 | 11:53 | NW 28 G 52 | 16.09 | Fair | CLR | 18.3 | 1.7 | 33% | 75.72 | 1009.4 | |||||||
| 03 | 10:53 | NW 22 G 44 | 16.09 | Fair | CLR | 17.8 | 2.8 | 37% | 75.72 | 1009.4 | |||||||
| 03 | 09:53 | NW 20 G 39 | 16.09 | Fair | CLR | 15 | 3.9 | 48% | 75.72 | 1009.3 | |||||||
| 03 | 08:53 | NW 24 G 37 | 16.09 | Fair | CLR | 13.3 | 3.3 | 51% | 75.69 | 1009.0 | |||||||
| 03 | 07:53 | NW 17 G 33 | 16.09 | Fair | CLR | 10.6 | 2.2 | 56% | 75.62 | 1008.2 | |||||||
| 03 | 06:53 | NW 20 G 35 | 16.09 | Fair | CLR | 9.4 | 1.7 | 16.1 | 9.4 | 59% | 7 | 75.54 | 1007.0 | ||||
| 03 | 05:53 | NW 24 | 16.09 | Fair | CLR | 9.4 | 1.7 | 59% | 7 | 75.46 | 1006.2 | ||||||
| 03 | 04:53 | W 20 | 16.09 | Fair | CLR | 9.4 | 2.8 | 64% | 7 | 75.46 | 1005.8 | ||||||
| Date | Time (cdt) | Wind (kph) | Vis. (km) | Weather | Sky Cond. | Air | Dwpt | Max. | Min. | Relative Humidity | Wind Chill (°C) | Heat Index (°C) | altimeter (cm) | sea level (mb) | 1 hr | 3 hr | 6 hr |
| 6 hour | |||||||||||||||||
| Temperature (ºC) | Pressure | Precipitation (cm) | |||||||||||||||